• Join FlightAware (Why Join?)
  • Login
  • US Flag 
12:00AM EDT


 

Airport Tracker/Info


-or-


 

Live Flight TrackerFlight Track Log ✈ SWA896 ✈ 19-May-2013 ✈ KLAS - KSMF

Flight Track Log - Related Links

Times and Time Zones

All times are in EDT time to prevent confusion due to time zone crossing. See the SWA896 flight status page for this flight to view local times or setup timezone preferences in your user account.

Time Position Orientation Groundspeed Altitude Reporting Facility
EDT Latitude Longitude Course Direction KTS MPH feet Rate Location/Type
02:19PM 36.1028 -115.1514 356° North 159 183 3,100  Level Los Angeles Center
02:19PM 36.1158 -115.1525 356° North 161 185 3,600 1,620 Climbing Los Angeles Center
02:20PM 36.1169 -115.2267 271° West 245 282 5,500 2,220 Climbing Los Angeles Center
02:21PM 36.0839 -115.3039 242° Southwest 267 307 8,300 1,680 Climbing Los Angeles Center
02:22PM 36.0114 -115.3383 201° Southwest 286 329 9,000 900 Climbing Los Angeles Center
02:23PM 35.9328 -115.3789 203° Southwest 282 325 10,600 2,460 Climbing Los Angeles Center
02:24PM 35.8861 -115.4911 243° Southwest 283 326 15,100 3,240 Climbing Los Angeles Center
02:26PM 35.8897 -115.5844 273° West 280 322 17,400 2,280 Climbing Los Angeles Center
02:27PM 35.8903 -115.7022 270° West 318 366 19,900 1,500 Climbing Los Angeles Center
02:28PM 35.8933 -115.8239 272° West 359 413 20,500 1,200 Climbing Los Angeles Center
02:29PM 35.9561 -115.9317 306° West 391 450 22,400 2,400 Climbing Los Angeles Center
02:30PM 36.0222 -116.0244 311° West 388 447 25,500 3,240 Climbing Los Angeles Center
02:31PM 36.1011 -116.1256 314° West 344 396 29,100 1,980 Climbing Los Angeles Center
02:32PM 36.1678 -116.2133 313° West 344 396 29,600 480 Climbing Los Angeles Center
02:33PM 36.2417 -116.3119 313° West 375 432 30,200 660 Climbing Los Angeles Center
02:34PM 36.3183 -116.4136 313° West 396 456 31,000 660 Climbing Los Angeles Center
02:35PM 36.3933 -116.5144 313° West 398 458 31,600 960 Climbing Los Angeles Center
02:36PM 36.4697 -116.6164 313° West 402 463 33,000 1,140 Climbing Los Angeles Center
02:37PM 36.5433 -116.7189 312° West 397 457 34,000 480 Climbing Los Angeles Center
02:38PM 36.6511 -116.8164 324° Northwest 402 463 34,000  Level Los Angeles Center
02:39PM 36.7450 -116.8836 330° Northwest 401 461 34,000  Level Los Angeles Center
02:40PM 36.8431 -116.9597 328° Northwest 402 463 34,000  Level Los Angeles Center
02:41PM 36.8989 -117.0033 328° Northwest 400 460 34,000  Level Oakland Center
02:42PM 36.9931 -117.0761 328° Northwest 398 458 34,000  Level Oakland Center
02:43PM 37.0867 -117.1467 329° Northwest 396 456 34,000  Level Oakland Center
02:44PM 37.1811 -117.2206 328° Northwest 397 457 34,000  Level Oakland Center
02:45PM 37.2919 -117.3072 328° Northwest 392 451 34,000  Level Oakland Center
02:46PM 37.3722 -117.3953 319° Northwest 389 448 34,000  Level Oakland Center
02:47PM 37.4406 -117.5019 309° West 393 452 34,000  Level Oakland Center
02:48PM 37.5086 -117.6050 310° West 384 442 34,000  Level Oakland Center
02:49PM 37.5786 -117.7103 310° West 388 447 34,000 -120 Level Oakland Center
02:50PM 37.6461 -117.8150 309° West 384 442 33,800 -600 Descending Oakland Center
02:51PM 37.7147 -117.9200 310° West 385 443 32,800 -1,020 Descending Oakland Center
02:52PM 37.7836 -118.0269 309° West 390 449 31,800 -1,020 Descending Oakland Center
02:53PM 37.8519 -118.1331 309° West 388 447 30,800 -900 Descending Oakland Center
02:54PM 37.9347 -118.2617 309° West 389 448 30,000 -420 Descending Oakland Center
02:55PM 38.0036 -118.3689 309° West 391 450 30,000  Level Oakland Center
02:56PM 38.0714 -118.4767 309° West 390 449 30,000  Level Oakland Center
02:57PM 38.1342 -118.5753 309° West 392 451 30,000  Level Oakland Center
02:58PM 38.2019 -118.6831 309° West 392 451 30,000  Level Oakland Center
02:59PM 38.2844 -118.8125 309° West 390 449 30,000  Level Oakland Center
03:00PM 38.3525 -118.9194 309° West 389 448 30,000  Level Oakland Center
03:01PM 38.4192 -119.0281 308° West 389 448 30,000  Level Oakland Center
03:02PM 38.4867 -119.1369 308° West 390 449 30,000  Level Oakland Center
03:03PM 38.5544 -119.2453 309° West 389 448 30,000  Level Oakland Center
03:04PM 38.6208 -119.3536 308° West 387 445 30,000 -60 Level Oakland Center
03:05PM 38.6611 -119.4825 292° West 395 455 29,900 -540 Descending Oakland Center
03:06PM 38.6936 -119.6194 287° West 402 463 28,900 -1,080 Descending Oakland Center
03:07PM 38.7303 -119.7861 286° West 405 466 27,700 -1,080 Descending Oakland Center
03:08PM 38.7594 -119.9194 286° West 404 465 26,700 -1,020 Descending Oakland Center
03:09PM 38.7900 -120.0561 286° West 402 463 25,700 -1,020 Descending Oakland Center
03:10PM 38.8206 -120.1939 286° West 402 463 24,700 -1,500 Descending Oakland Center
03:11PM 38.8497 -120.3286 286° West 395 455 22,700 -2,160 Descending Oakland Center
03:12PM 38.8772 -120.4564 285° West 377 434 20,300 -2,520 Descending Oakland Center
03:14PM 38.9083 -120.6036 285° West 360 414 17,600 -2,460 Descending Oakland Center
03:15PM 38.9339 -120.7219 286° West 348 400 15,300 -2,280 Descending Oakland Center
03:16PM 38.9589 -120.8381 286° West 341 392 13,000 -1,920 Descending Oakland Center
03:17PM 38.9672 -120.9594 275° West 355 409 11,400 -1,320 Descending Oakland Center
03:18PM 38.9450 -121.0853 257° West 363 418 10,400 -780 Descending Oakland Center
03:19PM 38.9247 -121.1986 257° West 331 381 9,900 -900 Descending Oakland Center
03:20PM 38.9058 -121.2964 256° West 292 336 8,600 -1,500 Descending Oakland Center
03:21PM 38.8850 -121.4153 257° West 287 330 6,900 -1,500 Descending Oakland Center
03:22PM 38.8706 -121.5128 259° West 282 325 5,600 -1,020 Descending Oakland Center
03:23PM 38.8553 -121.6089 258° West 278 320 4,900 -1,020 Descending Oakland Center
03:24PM 38.8211 -121.6883 241° Southwest 285 328 3,600 -1,020 Descending Oakland Center
03:25PM 38.7456 -121.6911 182° South 275 316 2,900 -360 Descending Oakland Center
03:26PM 38.6783 -121.6808 173° South 252 290 2,900 -420 Level Oakland Center
03:27PM 38.6289 -121.6564 159° South 219 252 2,100 -1,080 Descending Oakland Center
03:28PM 38.6500 -121.6000 64° Northeast 154 177 800 -1,020 Descending Northern Cal TRACON
03:29PM 38.6833 -121.6000 360° North 142 163 100 -720 Descending Northern Cal TRACON